Aviation Digital Data Service (ADDS)

Output produced by METARs form (0255 UTC 22 April 2019)
found at http://www.aviationweather.gov/metar/data/
 
Forecast for: RJOH (MIHO (CIV/JASDF), JP)
Text: TAF RJOH 212308Z 2200/2306 05012KT 9999 FEW030
Forecast period: 0000 UTC 22 April 2019 to 0600 UTC 23 April 2019
Forecast type: FROM: standard forecast or significant change
Winds: from the NE (50 degrees) at 14 MPH (12 knots; 6.2 m/s)
Visibility: 6 or more miles 10+ km)
Ceiling: at least 12,000 feet AGL
Clouds: few clouds at 3000 feet AGL
Weather: no significant weather forecast for this period